Time;durP1;ratioP1;P1;durP2;ratioP2;P2;SDS_P1;SDS_P2;PMS_P1;PMS_P2;Temp;Humidity;BMP_temperature;BMP_pressure;BME280_temperature;BME280_humidity;BME280_pressure;Samples;Min_cycle;Max_cycle;Signal;HPM_P1;HPM_P2
2023/03/30 00:02:21;;;;;;;16.40;8.20;;;;;;;;;;5009538;28;20431;-60
2023/03/30 00:04:49;;;;;;;14.97;8.10;;;;;;;;;;5010503;28;20471;-59
2023/03/30 00:07:15;;;;;;;17.00;8.50;;;;;;;;;;5022958;28;20188;-60
2023/03/30 00:09:42;;;;;;;16.03;7.90;;;;;;;;;;5030189;28;20278;-60
2023/03/30 00:12:09;;;;;;;15.90;8.03;;;;;;;;;;5030473;28;20230;-60
2023/03/30 00:14:41;;;;;;;17.50;7.77;;;;;;;;;;5029431;28;20246;-60
2023/03/30 00:17:08;;;;;;;19.70;8.60;;;;;;;;;;5030207;28;20191;-60
2023/03/30 00:19:37;;;;;;;15.90;7.80;;;;;;;;;;5030137;28;20555;-59
2023/03/30 00:22:04;;;;;;;14.80;8.10;;;;;;;;;;5030193;28;20430;-59
2023/03/30 00:24:31;;;;;;;15.13;8.27;;;;;;;;;;5030204;28;20617;-61
2023/03/30 00:26:58;;;;;;;13.87;8.00;;;;;;;;;;5030179;28;20447;-59
2023/03/30 00:29:24;;;;;;;17.57;8.27;;;;;;;;;;5029720;28;20438;-61
2023/03/30 00:31:51;;;;;;;15.17;7.80;;;;;;;;;;5029923;28;20801;-59
2023/03/30 00:34:18;;;;;;;17.13;8.53;;;;;;;;;;5011347;28;21353;-60
2023/03/30 00:36:48;;;;;;;16.10;7.50;;;;;;;;;;5011965;28;20227;-61
2023/03/30 00:39:17;;;;;;;19.47;8.37;;;;;;;;;;5012329;28;20439;-59
2023/03/30 00:41:44;;;;;;;13.43;7.83;;;;;;;;;;5011822;28;20797;-59
2023/03/30 00:44:29;;;;;;;15.00;7.67;;;;;;;;;;5029342;28;20329;-60
2023/03/30 00:46:57;;;;;;;13.83;7.77;;;;;;;;;;5011668;28;20446;-60
2023/03/30 00:49:24;;;;;;;14.30;7.60;;;;;;;;;;5011833;28;20601;-60
2023/03/30 00:51:50;;;;;;;16.53;8.43;;;;;;;;;;5029490;28;20434;-60
2023/03/30 00:54:18;;;;;;;16.33;7.63;;;;;;;;;;5023723;28;20443;-60
2023/03/30 00:56:44;;;;;;;15.40;8.03;;;;;;;;;;5008145;28;20499;-60
2023/03/30 00:59:12;;;;;;;13.93;7.30;;;;;;;;;;5009438;28;20782;-60
2023/03/30 01:01:39;;;;;;;14.40;7.20;;;;;;;;;;5009693;28;20954;-60
2023/03/30 01:04:06;;;;;;;16.77;7.60;;;;;;;;;;5008160;28;20533;-60
2023/03/30 01:06:33;;;;;;;13.83;7.67;;;;;;;;;;5009809;28;20196;-60
2023/03/30 01:08:59;;;;;;;18.57;8.07;;;;;;;;;;5008613;28;20188;-60
2023/03/30 01:11:26;;;;;;;15.63;7.53;;;;;;;;;;5009404;28;20877;-60
2023/03/30 01:13:57;;;;;;;15.40;7.60;;;;;;;;;;5009038;28;20500;-60
2023/03/30 01:16:25;;;;;;;13.93;7.83;;;;;;;;;;5007899;28;20942;-60
2023/03/30 01:19:10;;;;;;;14.40;6.93;;;;;;;;;;5009191;28;20442;-60
2023/03/30 01:21:57;;;;;;;14.57;6.77;;;;;;;;;;5009498;28;20776;-60
2023/03/30 01:24:27;;;;;;;14.37;7.30;;;;;;;;;;5008105;28;20467;-60
2023/03/30 01:26:55;;;;;;;11.50;6.70;;;;;;;;;;5007388;28;21012;-61
2023/03/30 01:29:26;;;;;;;14.70;7.20;;;;;;;;;;5009561;28;20803;-60
2023/03/30 01:31:59;;;;;;;12.27;7.10;;;;;;;;;;5009027;28;20196;-60
2023/03/30 01:34:29;;;;;;;16.53;7.63;;;;;;;;;;5008090;28;20435;-60
2023/03/30 01:37:14;;;;;;;11.30;6.97;;;;;;;;;;5008916;28;20427;-60
2023/03/30 01:39:51;;;;;;;12.23;6.80;;;;;;;;;;5014653;28;20428;-60
2023/03/30 01:42:20;;;;;;;13.07;6.83;;;;;;;;;;5028623;28;20434;-59
2023/03/30 02:16:57;;;;;;;14.73;7.73;;;;;;;;;;5007806;28;20766;-60
2023/03/30 02:19:26;;;;;;;14.90;7.40;;;;;;;;;;4994293;28;20439;-60
2023/03/30 02:21:53;;;;;;;18.50;8.13;;;;;;;;;;5013978;28;20446;-60
2023/03/30 02:24:21;;;;;;;13.60;7.37;;;;;;;;;;5010200;28;20985;-60
2023/03/30 02:26:49;;;;;;;13.07;7.50;;;;;;;;;;4994187;28;20984;-59
2023/03/30 02:29:17;;;;;;;11.10;7.67;;;;;;;;;;5026262;28;20441;-60
2023/03/30 02:31:44;;;;;;;12.90;8.10;;;;;;;;;;5024578;28;20507;-60
2023/03/30 02:34:28;;;;;;;13.27;7.53;;;;;;;;;;4994048;28;20441;-60
2023/03/30 02:37:00;;;;;;;13.17;7.70;;;;;;;;;;5027913;28;20433;-60
2023/03/30 02:39:27;;;;;;;13.50;7.67;;;;;;;;;;5010567;28;20445;-60
2023/03/30 02:42:05;;;;;;;17.20;7.53;;;;;;;;;;5027929;28;20433;-59
2023/03/30 02:44:36;;;;;;;12.10;7.70;;;;;;;;;;4993319;28;20470;-60
2023/03/30 02:47:04;;;;;;;10.97;7.33;;;;;;;;;;4994132;28;20470;-60
2023/03/30 02:49:47;;;;;;;12.17;7.07;;;;;;;;;;4993859;28;20446;-59
2023/03/30 02:52:14;;;;;;;11.77;7.43;;;;;;;;;;5009925;28;20557;-60
2023/03/30 02:54:45;;;;;;;10.50;6.97;;;;;;;;;;5027073;28;20461;-60
2023/03/30 02:57:34;;;;;;;10.73;7.33;;;;;;;;;;5027892;28;20782;-60
2023/03/30 03:00:23;;;;;;;11.13;7.23;;;;;;;;;;5016991;28;20446;-60
2023/03/30 03:02:51;;;;;;;12.43;7.30;;;;;;;;;;5010018;28;20832;-60
2023/03/30 03:05:24;;;;;;;12.97;6.80;;;;;;;;;;5009743;28;20969;-60
2023/03/30 03:08:17;;;;;;;13.13;7.30;;;;;;;;;;5024134;28;20301;-60
2023/03/30 03:10:46;;;;;;;14.77;7.50;;;;;;;;;;5008931;28;20450;-60
2023/03/30 03:13:15;;;;;;;9.67;7.03;;;;;;;;;;5007719;28;20454;-60
2023/03/30 03:15:45;;;;;;;13.63;7.37;;;;;;;;;;5009710;28;20526;-60
2023/03/30 03:18:12;;;;;;;12.80;6.70;;;;;;;;;;5027758;28;20458;-60
2023/03/30 03:20:40;;;;;;;11.20;7.13;;;;;;;;;;5004626;28;21230;-62
2023/03/30 03:23:07;;;;;;;9.77;6.70;;;;;;;;;;5034073;28;20524;-62
2023/03/30 03:25:42;;;;;;;10.20;6.77;;;;;;;;;;5021343;28;20541;-61
2023/03/30 03:28:11;;;;;;;11.07;6.53;;;;;;;;;;5007574;28;20546;-61
2023/03/30 03:30:41;;;;;;;9.33;6.50;;;;;;;;;;5007138;28;20941;-61
2023/03/30 03:33:14;;;;;;;13.23;7.33;;;;;;;;;;5007359;28;20446;-61
2023/03/30 03:35:47;;;;;;;10.40;6.37;;;;;;;;;;5006997;28;20450;-62
2023/03/30 03:38:14;;;;;;;11.97;6.77;;;;;;;;;;5009987;28;20198;-61
2023/03/30 03:40:41;;;;;;;12.43;7.27;;;;;;;;;;5010307;28;20452;-61
2023/03/30 03:43:09;;;;;;;13.33;7.00;;;;;;;;;;5010339;28;20270;-61
2023/03/30 03:45:36;;;;;;;12.87;6.80;;;;;;;;;;5010771;28;20477;-61
2023/03/30 03:48:03;;;;;;;9.53;6.30;;;;;;;;;;5010674;28;20450;-60
2023/03/30 03:50:41;;;;;;;11.17;6.80;;;;;;;;;;5008582;28;20468;-61
2023/03/30 03:53:08;;;;;;;12.00;6.97;;;;;;;;;;5010481;28;20461;-62
2023/03/30 03:55:35;;;;;;;11.60;6.87;;;;;;;;;;5010456;28;20199;-61
2023/03/30 03:58:06;;;;;;;11.30;7.17;;;;;;;;;;5027415;28;21129;-63
2023/03/30 04:00:35;;;;;;;9.20;6.37;;;;;;;;;;5029222;28;20441;-63
2023/03/30 04:03:03;;;;;;;12.77;6.60;;;;;;;;;;5034767;28;20217;-62
2023/03/30 04:05:31;;;;;;;13.57;7.20;;;;;;;;;;5009917;28;20509;-60
2023/03/30 04:07:58;;;;;;;11.13;6.70;;;;;;;;;;5008962;28;20452;-61
2023/03/30 04:10:25;;;;;;;11.93;7.40;;;;;;;;;;5009500;28;20953;-61
2023/03/30 04:12:59;;;;;;;12.77;7.50;;;;;;;;;;5009947;28;20535;-64
2023/03/30 04:15:45;;;;;;;16.00;7.67;;;;;;;;;;5009923;28;20435;-60
2023/03/30 04:18:30;;;;;;;12.17;7.70;;;;;;;;;;5026466;28;20528;-61
2023/03/30 04:21:19;;;;;;;12.20;7.20;;;;;;;;;;5019769;28;20449;-61
2023/03/30 04:24:12;;;;;;;12.10;7.30;;;;;;;;;;4987420;28;20579;-62
2023/03/30 04:26:52;;;;;;;17.37;7.30;;;;;;;;;;5027871;28;20477;-61
2023/03/30 04:29:57;;;;;;;12.97;6.80;;;;;;;;;;4945548;28;20464;-63
2023/03/30 04:32:43;;;;;;;10.77;7.07;;;;;;;;;;4945482;28;20601;-60
2023/03/30 04:35:30;;;;;;;15.37;7.33;;;;;;;;;;4999342;28;20536;-60
2023/03/30 04:37:59;;;;;;;13.47;8.03;;;;;;;;;;5035566;28;20938;-60
2023/03/30 04:41:04;;;;;;;9.33;7.20;;;;;;;;;;5026932;28;20541;-60
2023/03/30 04:43:46;;;;;;;11.80;7.03;;;;;;;;;;5005917;28;20482;-60
2023/03/30 04:46:24;;;;;;;14.97;8.40;;;;;;;;;;5013535;28;20485;-60
2023/03/30 04:49:11;;;;;;;13.97;8.43;;;;;;;;;;4985522;28;20450;-61
2023/03/30 04:51:56;;;;;;;17.10;9.67;;;;;;;;;;5022198;28;20456;-61
2023/03/30 04:54:42;;;;;;;15.70;9.00;;;;;;;;;;5014912;28;20453;-59
2023/03/30 04:57:32;;;;;;;20.30;9.97;;;;;;;;;;5030007;28;20867;-60
2023/03/30 05:00:12;;;;;;;14.80;9.17;;;;;;;;;;5013854;28;21018;-61
2023/03/30 05:03:04;;;;;;;13.20;8.63;;;;;;;;;;5010281;28;20442;-61
2023/03/30 05:05:51;;;;;;;15.37;8.73;;;;;;;;;;5033978;28;20595;-60
2023/03/30 05:08:38;;;;;;;16.30;9.10;;;;;;;;;;5021965;28;21227;-60
2023/03/30 05:11:30;;;;;;;20.83;9.47;;;;;;;;;;5012055;28;20466;-60
2023/03/30 05:14:15;;;;;;;15.53;8.73;;;;;;;;;;5010987;28;20872;-59
2023/03/30 05:16:58;;;;;;;14.43;8.37;;;;;;;;;;5010725;28;20498;-60
2023/03/30 05:19:42;;;;;;;14.83;8.73;;;;;;;;;;5032887;28;20191;-60
2023/03/30 05:22:20;;;;;;;15.50;9.07;;;;;;;;;;5010900;28;20576;-61
2023/03/30 05:25:10;;;;;;;14.90;9.00;;;;;;;;;;4991999;28;20467;-61
2023/03/30 05:27:59;;;;;;;16.40;9.43;;;;;;;;;;5006556;28;20454;-62
2023/03/30 05:30:46;;;;;;;13.40;8.97;;;;;;;;;;5025597;28;20442;-62
2023/03/30 05:33:33;;;;;;;16.20;10.07;;;;;;;;;;5027669;28;20430;-62
2023/03/30 05:36:19;;;;;;;16.40;9.83;;;;;;;;;;5027994;28;20513;-62
2023/03/30 05:38:59;;;;;;;16.63;10.13;;;;;;;;;;5024781;28;20456;-62
2023/03/30 05:42:00;;;;;;;15.53;9.43;;;;;;;;;;4987674;28;20472;-63
2023/03/30 05:44:45;;;;;;;14.67;9.10;;;;;;;;;;5006806;28;20484;-62
2023/03/30 05:47:48;;;;;;;15.33;8.53;;;;;;;;;;4963791;28;20534;-62
2023/03/30 05:50:37;;;;;;;14.60;9.17;;;;;;;;;;5011512;28;20206;-61
2023/03/30 05:53:11;;;;;;;14.53;9.37;;;;;;;;;;5008804;28;20480;-62
2023/03/30 05:56:03;;;;;;;14.53;9.13;;;;;;;;;;5009048;28;21082;-61
2023/03/30 05:58:56;;;;;;;12.40;8.30;;;;;;;;;;5000344;28;20848;-60
2023/03/30 06:01:44;;;;;;;12.33;8.40;;;;;;;;;;5037372;28;20518;-60
2023/03/30 06:04:12;;;;;;;16.13;8.93;;;;;;;;;;5008878;28;20508;-61
2023/03/30 06:06:40;;;;;;;11.90;8.47;;;;;;;;;;5031882;28;21350;-60
2023/03/30 06:09:07;;;;;;;15.47;9.17;;;;;;;;;;5008813;28;20451;-60
2023/03/30 06:11:35;;;;;;;13.37;9.07;;;;;;;;;;5007003;28;20457;-61
2023/03/30 06:14:16;;;;;;;15.03;9.07;;;;;;;;;;5015543;28;20201;-61
2023/03/30 06:16:53;;;;;;;15.17;8.50;;;;;;;;;;5019823;28;20437;-61
2023/03/30 06:19:21;;;;;;;15.27;9.30;;;;;;;;;;5032267;28;21190;-61
2023/03/30 06:21:47;;;;;;;15.70;9.50;;;;;;;;;;5012531;28;20290;-62
2023/03/30 06:24:32;;;;;;;16.53;10.33;;;;;;;;;;4999527;28;20482;-60
2023/03/30 06:27:01;;;;;;;17.03;9.50;;;;;;;;;;5010082;28;20214;-60
2023/03/30 06:29:29;;;;;;;16.17;9.77;;;;;;;;;;5020628;28;20209;-60
2023/03/30 06:31:57;;;;;;;19.03;11.00;;;;;;;;;;5015231;28;20195;-60
2023/03/30 06:34:39;;;;;;;20.73;12.53;;;;;;;;;;5025115;28;20442;-60
2023/03/30 06:37:07;;;;;;;19.00;11.10;;;;;;;;;;5006889;28;20194;-60
2023/03/30 06:39:36;;;;;;;20.23;11.77;;;;;;;;;;5007065;28;20191;-61
2023/03/30 06:42:05;;;;;;;20.60;11.83;;;;;;;;;;5024269;28;20553;-62
2023/03/30 06:44:45;;;;;;;21.60;12.33;;;;;;;;;;4987260;28;20207;-63
2023/03/30 06:47:15;;;;;;;20.17;11.43;;;;;;;;;;5006199;28;20306;-61
2023/03/30 06:49:41;;;;;;;20.10;11.70;;;;;;;;;;5009486;28;20253;-60
2023/03/30 06:52:33;;;;;;;21.03;11.80;;;;;;;;;;5022213;28;20298;-60
2023/03/30 06:54:59;;;;;;;20.00;11.40;;;;;;;;;;5008621;28;20200;-60
2023/03/30 06:57:27;;;;;;;21.50;11.97;;;;;;;;;;5025605;28;20291;-61
2023/03/30 06:59:54;;;;;;;20.17;11.87;;;;;;;;;;5004070;28;20206;-62
2023/03/30 07:02:22;;;;;;;21.63;12.33;;;;;;;;;;5041076;28;20242;-62
2023/03/30 07:05:04;;;;;;;24.90;12.30;;;;;;;;;;5008051;28;20753;-61
2023/03/30 07:07:43;;;;;;;21.07;12.00;;;;;;;;;;5007757;28;20235;-61
2023/03/30 07:10:10;;;;;;;18.80;10.97;;;;;;;;;;5014611;28;20264;-61
2023/03/30 07:12:38;;;;;;;22.20;11.70;;;;;;;;;;5008001;28;20512;-61
2023/03/30 07:15:06;;;;;;;21.57;11.00;;;;;;;;;;5010605;28;20613;-61
2023/03/30 07:17:34;;;;;;;17.77;11.40;;;;;;;;;;5010503;28;20302;-61
2023/03/30 07:20:04;;;;;;;19.90;11.77;;;;;;;;;;5014797;28;20203;-61
2023/03/30 07:22:32;;;;;;;18.13;10.40;;;;;;;;;;5012389;28;20192;-61
2023/03/30 07:25:00;;;;;;;18.07;10.33;;;;;;;;;;5030474;28;20206;-62
2023/03/30 07:27:28;;;;;;;17.27;11.13;;;;;;;;;;5024487;28;20267;-62
2023/03/30 07:29:56;;;;;;;14.77;9.87;;;;;;;;;;5010833;28;20194;-63
2023/03/30 07:32:36;;;;;;;16.23;9.33;;;;;;;;;;5023841;28;20722;-63
2023/03/30 07:35:07;;;;;;;15.77;10.30;;;;;;;;;;5010826;28;20209;-62
2023/03/30 07:37:38;;;;;;;17.27;10.27;;;;;;;;;;5010372;28;20207;-63
2023/03/30 07:40:09;;;;;;;15.63;10.40;;;;;;;;;;5034313;28;20584;-62
2023/03/30 07:42:39;;;;;;;16.67;10.43;;;;;;;;;;5023106;28;20232;-63
2023/03/30 07:45:06;;;;;;;15.57;10.53;;;;;;;;;;5010876;28;20199;-62
2023/03/30 07:47:33;;;;;;;17.40;11.00;;;;;;;;;;4994223;28;20259;-61
2023/03/30 07:50:00;;;;;;;16.17;10.00;;;;;;;;;;5015674;28;20195;-62
2023/03/30 07:52:28;;;;;;;17.00;11.20;;;;;;;;;;5011313;28;20558;-61
2023/03/30 07:54:59;;;;;;;17.43;10.93;;;;;;;;;;5011288;28;20195;-61
2023/03/30 07:57:33;;;;;;;19.50;10.47;;;;;;;;;;5028284;28;20215;-61
2023/03/30 08:00:00;;;;;;;17.13;10.43;;;;;;;;;;5009218;28;20724;-62
2023/03/30 08:03:03;;;;;;;19.17;11.27;;;;;;;;;;4971904;28;20216;-61
2023/03/30 08:05:31;;;;;;;18.53;10.83;;;;;;;;;;5035660;28;20256;-61
2023/03/30 08:08:13;;;;;;;14.60;9.83;;;;;;;;;;5018498;28;21062;-60
2023/03/30 08:10:39;;;;;;;16.70;10.60;;;;;;;;;;5009291;28;20260;-63
2023/03/30 08:13:07;;;;;;;17.53;11.40;;;;;;;;;;5008296;28;20663;-61
2023/03/30 08:15:34;;;;;;;18.00;10.90;;;;;;;;;;5008417;28;20199;-61
2023/03/30 08:18:05;;;;;;;17.30;11.73;;;;;;;;;;5030212;28;20590;-61
2023/03/30 08:20:35;;;;;;;19.30;11.10;;;;;;;;;;5039636;28;20254;-60
2023/03/30 08:23:03;;;;;;;19.17;11.40;;;;;;;;;;5029391;28;20704;-60
2023/03/30 08:25:30;;;;;;;16.83;11.10;;;;;;;;;;5014382;28;20697;-62
2023/03/30 08:27:56;;;;;;;21.43;12.73;;;;;;;;;;5020055;28;20597;-61
2023/03/30 08:30:23;;;;;;;19.87;11.17;;;;;;;;;;5028794;28;20207;-61
2023/03/30 08:32:50;;;;;;;19.60;12.10;;;;;;;;;;5009855;28;20273;-60
2023/03/30 08:35:19;;;;;;;17.53;12.20;;;;;;;;;;5027364;28;20184;-61
2023/03/30 08:37:46;;;;;;;18.20;12.73;;;;;;;;;;5026707;28;20179;-62
2023/03/30 08:40:13;;;;;;;19.67;12.37;;;;;;;;;;5029964;28;20273;-61
2023/03/30 08:42:46;;;;;;;22.60;12.73;;;;;;;;;;5026873;28;20247;-62
2023/03/30 08:45:13;;;;;;;18.70;12.60;;;;;;;;;;5027576;28;20298;-61
2023/03/30 08:47:41;;;;;;;18.00;11.40;;;;;;;;;;5026859;28;20239;-61
2023/03/30 08:50:35;;;;;;;16.63;12.23;;;;;;;;;;5028307;28;20294;-62
2023/03/30 08:53:03;;;;;;;20.27;12.20;;;;;;;;;;5023545;28;20614;-60
2023/03/30 08:55:37;;;;;;;14.87;10.73;;;;;;;;;;5027122;28;20186;-60
2023/03/30 08:58:04;;;;;;;18.60;11.80;;;;;;;;;;4992622;28;20198;-60
2023/03/30 09:00:41;;;;;;;17.10;11.63;;;;;;;;;;5026301;28;20197;-61
2023/03/30 09:03:18;;;;;;;15.57;11.20;;;;;;;;;;5020858;28;20203;-61
2023/03/30 09:05:47;;;;;;;16.47;10.80;;;;;;;;;;4993348;28;20194;-61
2023/03/30 09:08:17;;;;;;;19.10;12.53;;;;;;;;;;5008884;28;20226;-60
2023/03/30 09:10:45;;;;;;;17.70;11.70;;;;;;;;;;5031298;28;20199;-61
2023/03/30 09:13:16;;;;;;;17.47;11.00;;;;;;;;;;5030070;28;20297;-60
2023/03/30 09:15:46;;;;;;;15.67;10.10;;;;;;;;;;5029597;28;20597;-60
2023/03/30 09:18:16;;;;;;;16.70;10.90;;;;;;;;;;5033147;28;20199;-61
2023/03/30 09:20:43;;;;;;;15.63;10.80;;;;;;;;;;5035708;28;20566;-61
2023/03/30 09:23:12;;;;;;;17.60;11.43;;;;;;;;;;5021529;28;20246;-62
2023/03/30 09:25:52;;;;;;;16.57;10.73;;;;;;;;;;5008978;28;20279;-62
2023/03/30 09:28:39;;;;;;;15.73;10.77;;;;;;;;;;5025354;28;20333;-61
2023/03/30 09:31:07;;;;;;;15.53;10.53;;;;;;;;;;5028465;28;20207;-62
2023/03/30 09:33:38;;;;;;;14.40;10.23;;;;;;;;;;5024155;28;20187;-61
2023/03/30 09:36:15;;;;;;;14.43;10.37;;;;;;;;;;5025665;28;20318;-62
2023/03/30 09:38:42;;;;;;;15.03;10.23;;;;;;;;;;5024968;28;20889;-62
2023/03/30 09:41:28;;;;;;;13.47;9.63;;;;;;;;;;5027486;28;20207;-61
2023/03/30 09:43:57;;;;;;;14.07;10.03;;;;;;;;;;5019815;28;20246;-60
2023/03/30 09:46:23;;;;;;;14.33;10.53;;;;;;;;;;5025500;28;20199;-61
2023/03/30 09:48:52;;;;;;;14.13;10.27;;;;;;;;;;5038237;28;20206;-60
2023/03/30 09:51:20;;;;;;;14.30;10.40;;;;;;;;;;5013748;28;20191;-61
2023/03/30 09:53:48;;;;;;;12.80;9.57;;;;;;;;;;5029421;28;20278;-61
2023/03/30 09:56:19;;;;;;;14.63;9.63;;;;;;;;;;5026037;28;20546;-62
2023/03/30 09:58:46;;;;;;;10.70;8.43;;;;;;;;;;5025134;28;20198;-62
2023/03/30 10:01:15;;;;;;;11.13;7.60;;;;;;;;;;5040474;28;21198;-60
2023/03/30 10:03:43;;;;;;;13.57;8.87;;;;;;;;;;4999539;28;20207;-60
2023/03/30 10:06:14;;;;;;;9.97;6.73;;;;;;;;;;5026387;28;20188;-60
2023/03/30 10:08:43;;;;;;;11.70;7.60;;;;;;;;;;5027437;28;20238;-59
2023/03/30 10:11:10;;;;;;;8.83;6.53;;;;;;;;;;5007813;28;20697;-61
2023/03/30 10:13:38;;;;;;;11.17;7.43;;;;;;;;;;5013034;28;20240;-60
2023/03/30 10:16:05;;;;;;;10.27;7.37;;;;;;;;;;5019387;28;20197;-60
2023/03/30 10:18:34;;;;;;;10.07;7.50;;;;;;;;;;5035882;28;20741;-63
2023/03/30 10:21:05;;;;;;;11.50;7.67;;;;;;;;;;5030286;28;20295;-61
2023/03/30 10:23:43;;;;;;;13.03;8.70;;;;;;;;;;5029090;28;20199;-62
2023/03/30 10:26:14;;;;;;;12.23;8.50;;;;;;;;;;5032849;28;20221;-61
2023/03/30 10:28:49;;;;;;;10.57;7.30;;;;;;;;;;5032376;28;20575;-60
2023/03/30 10:31:16;;;;;;;11.87;8.57;;;;;;;;;;5031150;28;20222;-61
2023/03/30 10:33:43;;;;;;;11.97;7.77;;;;;;;;;;5010437;28;20854;-61
2023/03/30 10:36:10;;;;;;;13.03;8.53;;;;;;;;;;5024109;28;20674;-61
2023/03/30 10:38:38;;;;;;;12.53;8.67;;;;;;;;;;5024885;28;20249;-60
2023/03/30 10:41:11;;;;;;;13.53;9.23;;;;;;;;;;5009572;28;20200;-60
2023/03/30 10:43:38;;;;;;;12.80;9.77;;;;;;;;;;5040891;28;20230;-60
2023/03/30 10:46:10;;;;;;;15.63;10.27;;;;;;;;;;5018930;28;20191;-60
2023/03/30 10:49:15;;;;;;;16.13;9.63;;;;;;;;;;5029278;28;20207;-60
2023/03/30 10:52:01;;;;;;;13.43;9.57;;;;;;;;;;4987729;28;20660;-60
2023/03/30 10:54:46;;;;;;;15.40;10.50;;;;;;;;;;5029206;28;20302;-59
2023/03/30 10:57:17;;;;;;;16.27;10.50;;;;;;;;;;5019534;28;20666;-61
2023/03/30 10:59:45;;;;;;;13.70;9.43;;;;;;;;;;5028816;28;20213;-59
2023/03/30 11:02:15;;;;;;;14.77;10.40;;;;;;;;;;5037316;28;20886;-62
2023/03/30 11:04:44;;;;;;;14.60;9.63;;;;;;;;;;5029227;28;20596;-60
2023/03/30 11:07:12;;;;;;;14.53;9.43;;;;;;;;;;5011313;28;20239;-60
2023/03/30 11:09:39;;;;;;;14.50;9.70;;;;;;;;;;5011821;28;20200;-60
2023/03/30 11:12:14;;;;;;;13.17;9.30;;;;;;;;;;5009989;28;20188;-61
2023/03/30 11:14:44;;;;;;;12.97;10.00;;;;;;;;;;5027120;28;20234;-60
2023/03/30 11:17:31;;;;;;;12.03;7.77;;;;;;;;;;5028799;28;20192;-61
2023/03/30 11:20:00;;;;;;;9.37;6.83;;;;;;;;;;5009276;28;20210;-61
2023/03/30 11:22:40;;;;;;;9.67;6.50;;;;;;;;;;5017708;28;20202;-62
2023/03/30 11:25:14;;;;;;;11.77;8.40;;;;;;;;;;5028518;28;20199;-60
2023/03/30 11:28:01;;;;;;;13.90;10.00;;;;;;;;;;5001429;28;20321;-60
2023/03/30 11:30:29;;;;;;;13.83;9.03;;;;;;;;;;5007222;28;20538;-61
2023/03/30 11:32:57;;;;;;;13.53;9.37;;;;;;;;;;5028343;28;20195;-60
2023/03/30 11:35:45;;;;;;;14.87;9.93;;;;;;;;;;5011359;28;20647;-62
2023/03/30 11:38:23;;;;;;;11.63;9.27;;;;;;;;;;5010458;28;20282;-59
2023/03/30 11:40:50;;;;;;;13.10;9.63;;;;;;;;;;5034393;28;20221;-60
2023/03/30 11:43:18;;;;;;;13.93;8.50;;;;;;;;;;5027518;28;20277;-60
2023/03/30 11:45:57;;;;;;;11.40;8.43;;;;;;;;;;5028112;28;20249;-61
2023/03/30 11:48:49;;;;;;;11.33;8.47;;;;;;;;;;5016454;28;20265;-60
2023/03/30 11:51:18;;;;;;;12.23;9.10;;;;;;;;;;5007029;28;20254;-61
2023/03/30 11:53:45;;;;;;;12.33;8.80;;;;;;;;;;4994026;28;20563;-62
2023/03/30 11:56:14;;;;;;;13.10;9.10;;;;;;;;;;5028166;28;20203;-61
2023/03/30 11:58:42;;;;;;;13.50;9.07;;;;;;;;;;5026885;28;20298;-61
2023/03/30 12:01:13;;;;;;;13.13;9.17;;;;;;;;;;5010345;28;20211;-61
2023/03/30 12:03:47;;;;;;;14.10;8.87;;;;;;;;;;5028672;28;20206;-60
2023/03/30 12:06:29;;;;;;;12.57;8.40;;;;;;;;;;5005193;28;20294;-61
2023/03/30 12:09:03;;;;;;;12.57;8.23;;;;;;;;;;5010890;28;20214;-61
2023/03/30 12:11:37;;;;;;;12.87;8.17;;;;;;;;;;5010588;28;20206;-60
2023/03/30 12:14:06;;;;;;;12.47;8.77;;;;;;;;;;5013700;28;20195;-61
2023/03/30 12:16:39;;;;;;;14.73;9.27;;;;;;;;;;5018589;28;20191;-60
2023/03/30 12:19:09;;;;;;;16.27;10.13;;;;;;;;;;5032502;28;20995;-60
2023/03/30 12:21:39;;;;;;;17.07;9.73;;;;;;;;;;5010153;28;20295;-61
2023/03/30 12:24:21;;;;;;;15.77;10.77;;;;;;;;;;5034991;28;20904;-60
2023/03/30 12:26:48;;;;;;;15.13;10.17;;;;;;;;;;5034277;28;20187;-60
2023/03/30 12:29:50;;;;;;;18.53;11.43;;;;;;;;;;5020628;28;20206;-61
2023/03/30 12:32:24;;;;;;;14.47;9.43;;;;;;;;;;5046596;28;20221;-60
2023/03/30 12:34:55;;;;;;;15.60;10.90;;;;;;;;;;5016047;28;21129;-60
2023/03/30 12:37:35;;;;;;;16.90;11.67;;;;;;;;;;5027868;28;20183;-61
2023/03/30 12:40:21;;;;;;;13.40;10.23;;;;;;;;;;5009815;28;20199;-60
2023/03/30 12:43:08;;;;;;;13.03;9.87;;;;;;;;;;4993672;28;20282;-61
2023/03/30 12:45:38;;;;;;;13.80;10.70;;;;;;;;;;5033497;28;20202;-61
2023/03/30 12:48:18;;;;;;;17.33;11.20;;;;;;;;;;5009210;28;20210;-60
2023/03/30 12:50:48;;;;;;;16.40;11.13;;;;;;;;;;4996291;28;20203;-62
2023/03/30 12:53:16;;;;;;;17.80;12.07;;;;;;;;;;5034157;28;20198;-59
2023/03/30 12:55:52;;;;;;;17.37;11.07;;;;;;;;;;5040624;28;20226;-60
2023/03/30 12:58:35;;;;;;;20.70;13.80;;;;;;;;;;5017966;28;20203;-61
2023/03/30 13:01:02;;;;;;;18.10;12.97;;;;;;;;;;5029201;28;21016;-59
2023/03/30 13:03:46;;;;;;;14.43;10.83;;;;;;;;;;5027113;28;20223;-59
2023/03/30 13:06:23;;;;;;;14.83;10.67;;;;;;;;;;5027543;28;20225;-59
2023/03/30 13:08:54;;;;;;;18.67;12.00;;;;;;;;;;5023071;28;20215;-59
2023/03/30 13:11:21;;;;;;;24.17;14.97;;;;;;;;;;5009520;28;20190;-60
2023/03/30 13:13:55;;;;;;;25.93;14.67;;;;;;;;;;5002517;28;20194;-60
2023/03/30 13:16:40;;;;;;;19.23;11.33;;;;;;;;;;5027175;28;20172;-60
2023/03/30 13:19:20;;;;;;;17.47;12.20;;;;;;;;;;5026587;28;20214;-60
2023/03/30 13:21:47;;;;;;;23.10;14.47;;;;;;;;;;5040508;28;20218;-60
2023/03/30 13:24:40;;;;;;;26.23;16.33;;;;;;;;;;5031782;28;20183;-61
2023/03/30 13:27:13;;;;;;;30.40;18.07;;;;;;;;;;4994491;28;20237;-60
2023/03/30 13:29:40;;;;;;;28.03;17.73;;;;;;;;;;5025839;28;20203;-61
2023/03/30 13:32:26;;;;;;;34.00;20.60;;;;;;;;;;5035190;28;20608;-59
2023/03/30 13:35:05;;;;;;;25.20;16.67;;;;;;;;;;5008760;28;20196;-61
2023/03/30 13:37:52;;;;;;;29.63;18.60;;;;;;;;;;5029009;28;20222;-61
2023/03/30 13:40:26;;;;;;;24.13;16.47;;;;;;;;;;5012222;28;20310;-61
2023/03/30 13:43:16;;;;;;;22.17;15.00;;;;;;;;;;5024141;28;20258;-59
2023/03/30 13:45:49;;;;;;;20.33;14.10;;;;;;;;;;5029548;28;20203;-59
2023/03/30 13:48:23;;;;;;;21.83;15.33;;;;;;;;;;5029051;28;20220;-59
2023/03/30 13:50:52;;;;;;;21.10;14.60;;;;;;;;;;5027993;28;20551;-59
2023/03/30 13:53:19;;;;;;;22.13;14.83;;;;;;;;;;5010044;28;20195;-59
2023/03/30 13:55:47;;;;;;;24.10;15.73;;;;;;;;;;4993729;28;20203;-59
2023/03/30 13:58:18;;;;;;;21.90;15.27;;;;;;;;;;5009318;28;20280;-59
2023/03/30 14:00:47;;;;;;;26.23;16.07;;;;;;;;;;5008433;28;20223;-60
2023/03/30 14:03:26;;;;;;;25.23;17.80;;;;;;;;;;5008790;28;20207;-61
2023/03/30 14:05:53;;;;;;;25.63;17.83;;;;;;;;;;5008684;28;20200;-60
2023/03/30 14:08:20;;;;;;;27.90;18.00;;;;;;;;;;5008161;28;20218;-59
2023/03/30 14:10:47;;;;;;;24.77;17.37;;;;;;;;;;5008440;28;20210;-60
2023/03/30 14:13:15;;;;;;;24.27;16.77;;;;;;;;;;5007194;28;20184;-60
2023/03/30 14:15:44;;;;;;;24.80;17.47;;;;;;;;;;5008616;28;20651;-60
2023/03/30 14:18:11;;;;;;;26.80;18.27;;;;;;;;;;5007651;28;20203;-60
2023/03/30 14:20:41;;;;;;;29.37;20.90;;;;;;;;;;5006792;28;20192;-60
2023/03/30 14:23:31;;;;;;;32.73;20.83;;;;;;;;;;5007539;28;20275;-60
2023/03/30 14:25:59;;;;;;;28.23;20.80;;;;;;;;;;5000738;28;21048;-60
2023/03/30 14:28:26;;;;;;;32.83;21.43;;;;;;;;;;5008012;28;20994;-60
2023/03/30 14:30:56;;;;;;;31.03;20.70;;;;;;;;;;5008422;28;20188;-59
2023/03/30 14:33:23;;;;;;;29.20;20.03;;;;;;;;;;5008387;28;20231;-60
2023/03/30 14:35:51;;;;;;;29.17;20.30;;;;;;;;;;5008345;28;20268;-60
2023/03/30 14:38:18;;;;;;;30.20;20.37;;;;;;;;;;4990875;28;20209;-60
2023/03/30 14:40:46;;;;;;;29.30;20.80;;;;;;;;;;5022620;28;20273;-59
2023/03/30 14:43:20;;;;;;;30.17;21.33;;;;;;;;;;5026807;28;20227;-60
2023/03/30 14:45:48;;;;;;;33.87;21.77;;;;;;;;;;5028051;28;20531;-59
2023/03/30 14:48:20;;;;;;;31.57;20.67;;;;;;;;;;5027835;28;20488;-60
2023/03/30 14:50:47;;;;;;;32.33;21.43;;;;;;;;;;5027907;28;20294;-60
2023/03/30 14:53:15;;;;;;;32.47;22.13;;;;;;;;;;5024914;28;20191;-61
2023/03/30 14:55:42;;;;;;;32.23;21.40;;;;;;;;;;5017402;28;20230;-60
2023/03/30 14:58:11;;;;;;;30.67;19.70;;;;;;;;;;5007850;28;20279;-61
2023/03/30 15:00:38;;;;;;;37.70;22.70;;;;;;;;;;4999419;28;20220;-59
2023/03/30 15:03:08;;;;;;;36.53;22.60;;;;;;;;;;5007910;28;20209;-61
2023/03/30 15:05:52;;;;;;;34.90;21.33;;;;;;;;;;5022428;28;20195;-61
2023/03/30 15:08:20;;;;;;;34.63;21.87;;;;;;;;;;5007960;28;20199;-61
2023/03/30 15:10:49;;;;;;;34.43;22.07;;;;;;;;;;5008060;28;20214;-60
2023/03/30 15:13:26;;;;;;;34.40;22.57;;;;;;;;;;5025813;28;20270;-61
2023/03/30 15:15:57;;;;;;;33.37;21.83;;;;;;;;;;5014079;28;20191;-60
2023/03/30 15:18:24;;;;;;;35.00;21.23;;;;;;;;;;5037007;28;20295;-61
2023/03/30 15:20:51;;;;;;;31.43;22.03;;;;;;;;;;5025446;28;20184;-61
2023/03/30 15:23:18;;;;;;;29.87;20.83;;;;;;;;;;5023139;28;20238;-61
2023/03/30 15:25:45;;;;;;;39.90;22.90;;;;;;;;;;5005169;28;20279;-61
2023/03/30 15:28:12;;;;;;;40.03;24.67;;;;;;;;;;5023331;28;20208;-61
2023/03/30 15:30:42;;;;;;;31.20;22.13;;;;;;;;;;5007132;28;20203;-60
2023/03/30 15:33:19;;;;;;;32.03;21.77;;;;;;;;;;5014188;28;20196;-60